Felicity, California
Current Conditions -  °F | °C
As of 4:57 PM on Tuesday 27 Jan 2015 (Local Time) from KNYL Reporting Station
Broken Clouds Broken Clouds  
Wind Chill: 69°   Ceiling: 30000
Heat Index: 69°   Visibility: 10mi
Dew Point: 56°   Wind: 3mph
Humidity: 63%   Direction: 350°N
Pressure: 30.14"   Gusts: NA
Location:  32.9392°N, 114.9°W
Report Text: KNYL 280057Z 35003KT 10SM FEW050 SCT200 BKN300 21/13 A3014 RMK AO2 SLP204 T02060133
Loading
Personal Weather Stations






























Interactive Weather Map New forecast layout! Learn more

10-Day Weather Forecast

Advertisements
Track Severe Weather on mobile